Ashville, Pennsylvania
Current Conditions -  °F | °C
As of 7:53 PM on Thursday 18 Dec 2014 (Local Time) from KAOO Reporting Station
Overcast Overcast  
Wind Chill: -8°   Ceiling: 1800
Heat Index: -2°   Visibility: 10mi
Dew Point: -6°   Wind: 13mph
Humidity: 78%   Direction: 300°WNW
Pressure: 30.07"   Gusts: NA
Location:  40.56°N, 78.55°W
Report Text: KAOO 190053Z AUTO 30011KT 10SM OVC018 M02/M06 A3007 RMK AO2 SLP203 T10221056
Loading
Personal Weather Stations






























Interactive Weather Map New forecast layout! Learn more

10-Day Weather Forecast

Advertisements
Track Severe Weather on mobile